sensor_id;sensor_type;location;lat;lon;timestamp;P1;durP1;ratioP1;P2;durP2;ratioP2
69837;SDS011;57135;51.992;4.476;2023-04-15T00:00:10;7.51;;;7.51;;
69837;SDS011;57135;51.992;4.476;2023-04-15T00:02:36;7.50;;;7.50;;
69837;SDS011;57135;51.992;4.476;2023-04-15T00:05:02;7.67;;;7.67;;
69837;SDS011;57135;51.992;4.476;2023-04-15T00:07:28;7.72;;;7.72;;
69837;SDS011;57135;51.992;4.476;2023-04-15T00:09:54;7.66;;;7.66;;
69837;SDS011;57135;51.992;4.476;2023-04-15T00:12:22;7.35;;;7.35;;
69837;SDS011;57135;51.992;4.476;2023-04-15T00:14:47;7.32;;;7.32;;
69837;SDS011;57135;51.992;4.476;2023-04-15T00:17:14;7.53;;;7.53;;
69837;SDS011;57135;51.992;4.476;2023-04-15T00:19:39;7.46;;;7.46;;
69837;SDS011;57135;51.992;4.476;2023-04-15T00:22:05;7.56;;;7.56;;
69837;SDS011;57135;51.992;4.476;2023-04-15T00:24:31;7.65;;;7.65;;
69837;SDS011;57135;51.992;4.476;2023-04-15T00:26:56;7.80;;;7.80;;
69837;SDS011;57135;51.992;4.476;2023-04-15T00:29:22;7.81;;;7.81;;
69837;SDS011;57135;51.992;4.476;2023-04-15T00:31:48;7.81;;;7.81;;
69837;SDS011;57135;51.992;4.476;2023-04-15T00:34:14;7.96;;;7.96;;
69837;SDS011;57135;51.992;4.476;2023-04-15T00:36:39;8.12;;;8.12;;
69837;SDS011;57135;51.992;4.476;2023-04-15T00:39:05;8.27;;;8.27;;
69837;SDS011;57135;51.992;4.476;2023-04-15T00:41:30;7.90;;;7.90;;
69837;SDS011;57135;51.992;4.476;2023-04-15T00:43:58;8.16;;;8.16;;
69837;SDS011;57135;51.992;4.476;2023-04-15T00:46:24;8.28;;;8.28;;
69837;SDS011;57135;51.992;4.476;2023-04-15T00:48:53;8.82;;;8.82;;
69837;SDS011;57135;51.992;4.476;2023-04-15T00:51:19;8.94;;;8.94;;
69837;SDS011;57135;51.992;4.476;2023-04-15T00:53:45;9.14;;;9.14;;
69837;SDS011;57135;51.992;4.476;2023-04-15T00:56:10;9.17;;;9.17;;
69837;SDS011;57135;51.992;4.476;2023-04-15T00:58:36;9.60;;;9.60;;
69837;SDS011;57135;51.992;4.476;2023-04-15T01:01:01;9.47;;;9.47;;
69837;SDS011;57135;51.992;4.476;2023-04-15T01:03:28;9.71;;;9.71;;
69837;SDS011;57135;51.992;4.476;2023-04-15T01:05:54;9.85;;;9.85;;
69837;SDS011;57135;51.992;4.476;2023-04-15T01:08:25;9.99;;;9.99;;
69837;SDS011;57135;51.992;4.476;2023-04-15T01:10:53;10.00;;;10.00;;
69837;SDS011;57135;51.992;4.476;2023-04-15T01:13:22;10.19;;;10.19;;
69837;SDS011;57135;51.992;4.476;2023-04-15T01:15:48;10.12;;;10.12;;
69837;SDS011;57135;51.992;4.476;2023-04-15T01:18:14;10.36;;;10.36;;
69837;SDS011;57135;51.992;4.476;2023-04-15T01:20:40;9.98;;;9.98;;
69837;SDS011;57135;51.992;4.476;2023-04-15T01:23:05;10.33;;;10.33;;
69837;SDS011;57135;51.992;4.476;2023-04-15T01:25:32;10.11;;;10.11;;
69837;SDS011;57135;51.992;4.476;2023-04-15T01:27:57;10.42;;;10.42;;
69837;SDS011;57135;51.992;4.476;2023-04-15T01:30:23;10.16;;;10.16;;
69837;SDS011;57135;51.992;4.476;2023-04-15T01:32:50;10.79;;;10.79;;
69837;SDS011;57135;51.992;4.476;2023-04-15T01:35:15;10.41;;;10.41;;
69837;SDS011;57135;51.992;4.476;2023-04-15T01:37:41;10.33;;;10.33;;
69837;SDS011;57135;51.992;4.476;2023-04-15T01:40:07;10.48;;;10.48;;
69837;SDS011;57135;51.992;4.476;2023-04-15T01:42:34;10.36;;;10.36;;
69837;SDS011;57135;51.992;4.476;2023-04-15T01:45:00;10.78;;;10.78;;
69837;SDS011;57135;51.992;4.476;2023-04-15T01:47:26;10.96;;;10.96;;
69837;SDS011;57135;51.992;4.476;2023-04-15T01:49:52;10.63;;;10.63;;
69837;SDS011;57135;51.992;4.476;2023-04-15T01:52:17;10.97;;;10.97;;
69837;SDS011;57135;51.992;4.476;2023-04-15T01:54:43;10.94;;;10.94;;
69837;SDS011;57135;51.992;4.476;2023-04-15T01:57:09;11.12;;;11.12;;
69837;SDS011;57135;51.992;4.476;2023-04-15T01:59:34;10.90;;;10.90;;
69837;SDS011;57135;51.992;4.476;2023-04-15T02:02:00;11.62;;;11.62;;
69837;SDS011;57135;51.992;4.476;2023-04-15T02:04:25;11.39;;;11.39;;
69837;SDS011;57135;51.992;4.476;2023-04-15T02:06:52;11.15;;;11.15;;
69837;SDS011;57135;51.992;4.476;2023-04-15T02:09:17;11.31;;;11.31;;
69837;SDS011;57135;51.992;4.476;2023-04-15T02:11:43;11.20;;;11.20;;
69837;SDS011;57135;51.992;4.476;2023-04-15T02:14:08;11.53;;;11.53;;
69837;SDS011;57135;51.992;4.476;2023-04-15T02:16:34;11.00;;;11.00;;
69837;SDS011;57135;51.992;4.476;2023-04-15T02:19:00;11.04;;;11.03;;
69837;SDS011;57135;51.992;4.476;2023-04-15T02:21:26;11.45;;;11.43;;
69837;SDS011;57135;51.992;4.476;2023-04-15T02:23:51;11.43;;;11.43;;
69837;SDS011;57135;51.992;4.476;2023-04-15T02:26:18;11.72;;;11.72;;
69837;SDS011;57135;51.992;4.476;2023-04-15T02:28:45;12.07;;;12.07;;
69837;SDS011;57135;51.992;4.476;2023-04-15T02:31:11;11.66;;;11.66;;
69837;SDS011;57135;51.992;4.476;2023-04-15T02:33:37;11.91;;;11.89;;
69837;SDS011;57135;51.992;4.476;2023-04-15T02:36:02;11.72;;;11.68;;
69837;SDS011;57135;51.992;4.476;2023-04-15T02:38:28;12.09;;;12.07;;
69837;SDS011;57135;51.992;4.476;2023-04-15T02:40:55;11.82;;;11.82;;
69837;SDS011;57135;51.992;4.476;2023-04-15T02:43:21;12.04;;;12.04;;
69837;SDS011;57135;51.992;4.476;2023-04-15T02:45:46;11.89;;;11.89;;
69837;SDS011;57135;51.992;4.476;2023-04-15T02:48:12;11.56;;;11.55;;
69837;SDS011;57135;51.992;4.476;2023-04-15T02:50:37;11.51;;;11.51;;
69837;SDS011;57135;51.992;4.476;2023-04-15T02:53:04;11.74;;;11.74;;
69837;SDS011;57135;51.992;4.476;2023-04-15T02:55:30;11.85;;;11.85;;
69837;SDS011;57135;51.992;4.476;2023-04-15T02:57:56;12.03;;;12.03;;
69837;SDS011;57135;51.992;4.476;2023-04-15T03:00:23;11.62;;;11.62;;
69837;SDS011;57135;51.992;4.476;2023-04-15T03:02:49;11.80;;;11.80;;
69837;SDS011;57135;51.992;4.476;2023-04-15T03:05:20;12.35;;;12.35;;
69837;SDS011;57135;51.992;4.476;2023-04-15T03:07:48;12.31;;;12.31;;
69837;SDS011;57135;51.992;4.476;2023-04-15T03:10:14;12.05;;;12.05;;
69837;SDS011;57135;51.992;4.476;2023-04-15T03:12:39;12.63;;;12.62;;
69837;SDS011;57135;51.992;4.476;2023-04-15T03:15:05;12.68;;;12.64;;
69837;SDS011;57135;51.992;4.476;2023-04-15T03:17:32;12.73;;;12.70;;
69837;SDS011;57135;51.992;4.476;2023-04-15T03:19:57;12.60;;;12.60;;
69837;SDS011;57135;51.992;4.476;2023-04-15T03:22:23;13.25;;;13.25;;
69837;SDS011;57135;51.992;4.476;2023-04-15T03:24:49;12.78;;;12.73;;
69837;SDS011;57135;51.992;4.476;2023-04-15T03:27:14;13.03;;;13.03;;
69837;SDS011;57135;51.992;4.476;2023-04-15T03:29:40;12.68;;;12.68;;
69837;SDS011;57135;51.992;4.476;2023-04-15T03:32:05;13.34;;;13.33;;
69837;SDS011;57135;51.992;4.476;2023-04-15T03:34:31;13.04;;;13.04;;
69837;SDS011;57135;51.992;4.476;2023-04-15T03:36:56;13.02;;;13.02;;
69837;SDS011;57135;51.992;4.476;2023-04-15T03:39:21;13.02;;;13.02;;
69837;SDS011;57135;51.992;4.476;2023-04-15T03:41:47;13.72;;;13.72;;
69837;SDS011;57135;51.992;4.476;2023-04-15T03:44:12;13.30;;;13.30;;
69837;SDS011;57135;51.992;4.476;2023-04-15T03:46:38;13.37;;;13.37;;
69837;SDS011;57135;51.992;4.476;2023-04-15T03:49:05;14.20;;;14.20;;
69837;SDS011;57135;51.992;4.476;2023-04-15T03:51:31;13.39;;;13.39;;
69837;SDS011;57135;51.992;4.476;2023-04-15T03:53:56;13.47;;;13.47;;
69837;SDS011;57135;51.992;4.476;2023-04-15T03:56:23;13.84;;;13.84;;
69837;SDS011;57135;51.992;4.476;2023-04-15T03:58:48;14.04;;;14.03;;
69837;SDS011;57135;51.992;4.476;2023-04-15T04:01:14;13.78;;;13.78;;
69837;SDS011;57135;51.992;4.476;2023-04-15T04:03:40;13.52;;;13.50;;
69837;SDS011;57135;51.992;4.476;2023-04-15T04:06:06;13.95;;;13.94;;
69837;SDS011;57135;51.992;4.476;2023-04-15T04:08:32;13.35;;;13.35;;
69837;SDS011;57135;51.992;4.476;2023-04-15T04:10:57;13.84;;;13.84;;
69837;SDS011;57135;51.992;4.476;2023-04-15T04:13:23;14.03;;;14.03;;
69837;SDS011;57135;51.992;4.476;2023-04-15T04:15:48;13.45;;;13.43;;
69837;SDS011;57135;51.992;4.476;2023-04-15T04:18:13;13.52;;;13.52;;
69837;SDS011;57135;51.992;4.476;2023-04-15T04:20:39;13.69;;;13.66;;
69837;SDS011;57135;51.992;4.476;2023-04-15T04:23:05;13.92;;;13.90;;
69837;SDS011;57135;51.992;4.476;2023-04-15T04:25:30;13.67;;;13.66;;
69837;SDS011;57135;51.992;4.476;2023-04-15T04:27:57;13.51;;;13.51;;
69837;SDS011;57135;51.992;4.476;2023-04-15T04:30:23;13.32;;;13.31;;
69837;SDS011;57135;51.992;4.476;2023-04-15T04:32:49;13.86;;;13.83;;
69837;SDS011;57135;51.992;4.476;2023-04-15T04:35:15;13.69;;;13.69;;
69837;SDS011;57135;51.992;4.476;2023-04-15T04:37:41;14.10;;;14.09;;
69837;SDS011;57135;51.992;4.476;2023-04-15T04:40:07;14.17;;;14.09;;
69837;SDS011;57135;51.992;4.476;2023-04-15T04:42:33;14.16;;;14.11;;
69837;SDS011;57135;51.992;4.476;2023-04-15T04:44:59;14.30;;;14.24;;
69837;SDS011;57135;51.992;4.476;2023-04-15T04:47:24;14.34;;;14.30;;
69837;SDS011;57135;51.992;4.476;2023-04-15T04:49:50;14.35;;;14.25;;
69837;SDS011;57135;51.992;4.476;2023-04-15T04:52:15;14.40;;;14.36;;
69837;SDS011;57135;51.992;4.476;2023-04-15T04:54:41;14.41;;;14.37;;
69837;SDS011;57135;51.992;4.476;2023-04-15T04:57:06;14.70;;;14.62;;
69837;SDS011;57135;51.992;4.476;2023-04-15T04:59:32;14.78;;;14.78;;
69837;SDS011;57135;51.992;4.476;2023-04-15T05:01:57;14.61;;;14.59;;
69837;SDS011;57135;51.992;4.476;2023-04-15T05:04:23;13.99;;;13.99;;
69837;SDS011;57135;51.992;4.476;2023-04-15T05:06:48;14.28;;;14.17;;
69837;SDS011;57135;51.992;4.476;2023-04-15T05:09:14;13.94;;;13.91;;
69837;SDS011;57135;51.992;4.476;2023-04-15T05:11:40;14.30;;;14.25;;
69837;SDS011;57135;51.992;4.476;2023-04-15T05:14:05;14.01;;;13.99;;
69837;SDS011;57135;51.992;4.476;2023-04-15T05:16:31;14.24;;;14.24;;
69837;SDS011;57135;51.992;4.476;2023-04-15T05:18:56;13.70;;;13.65;;
69837;SDS011;57135;51.992;4.476;2023-04-15T05:21:21;14.07;;;14.00;;
69837;SDS011;57135;51.992;4.476;2023-04-15T05:23:47;14.36;;;14.24;;
69837;SDS011;57135;51.992;4.476;2023-04-15T05:26:13;14.00;;;14.00;;
69837;SDS011;57135;51.992;4.476;2023-04-15T05:28:38;14.48;;;14.42;;
69837;SDS011;57135;51.992;4.476;2023-04-15T05:31:04;14.44;;;14.41;;
69837;SDS011;57135;51.992;4.476;2023-04-15T05:33:30;14.30;;;14.27;;
69837;SDS011;57135;51.992;4.476;2023-04-15T05:35:55;15.26;;;15.12;;
69837;SDS011;57135;51.992;4.476;2023-04-15T05:38:21;14.36;;;14.33;;
69837;SDS011;57135;51.992;4.476;2023-04-15T05:40:46;14.42;;;14.32;;
69837;SDS011;57135;51.992;4.476;2023-04-15T05:43:11;14.36;;;14.27;;
69837;SDS011;57135;51.992;4.476;2023-04-15T05:45:37;14.44;;;14.32;;
69837;SDS011;57135;51.992;4.476;2023-04-15T05:48:02;15.97;;;15.79;;
69837;SDS011;57135;51.992;4.476;2023-04-15T05:50:28;15.30;;;15.18;;
69837;SDS011;57135;51.992;4.476;2023-04-15T05:52:53;15.09;;;15.02;;
69837;SDS011;57135;51.992;4.476;2023-04-15T05:55:20;14.85;;;14.78;;
69837;SDS011;57135;51.992;4.476;2023-04-15T05:57:46;14.68;;;14.63;;
69837;SDS011;57135;51.992;4.476;2023-04-15T06:00:12;14.76;;;14.69;;
69837;SDS011;57135;51.992;4.476;2023-04-15T06:02:38;15.03;;;14.95;;
69837;SDS011;57135;51.992;4.476;2023-04-15T06:05:03;14.62;;;14.53;;
69837;SDS011;57135;51.992;4.476;2023-04-15T06:07:33;14.99;;;14.87;;
69837;SDS011;57135;51.992;4.476;2023-04-15T06:10:01;14.48;;;14.28;;
69837;SDS011;57135;51.992;4.476;2023-04-15T06:12:27;14.61;;;14.44;;
69837;SDS011;57135;51.992;4.476;2023-04-15T06:14:52;14.97;;;14.78;;
69837;SDS011;57135;51.992;4.476;2023-04-15T06:17:18;14.78;;;14.68;;
69837;SDS011;57135;51.992;4.476;2023-04-15T06:19:43;15.35;;;15.11;;
69837;SDS011;57135;51.992;4.476;2023-04-15T06:22:09;15.21;;;14.98;;
69837;SDS011;57135;51.992;4.476;2023-04-15T06:24:34;14.73;;;14.73;;
69837;SDS011;57135;51.992;4.476;2023-04-15T06:27:01;15.11;;;15.02;;
69837;SDS011;57135;51.992;4.476;2023-04-15T06:29:27;14.76;;;14.71;;
69837;SDS011;57135;51.992;4.476;2023-04-15T06:31:53;15.47;;;15.32;;
69837;SDS011;57135;51.992;4.476;2023-04-15T06:34:18;15.41;;;15.21;;
69837;SDS011;57135;51.992;4.476;2023-04-15T06:36:44;14.89;;;14.83;;
69837;SDS011;57135;51.992;4.476;2023-04-15T06:39:09;15.15;;;15.11;;
69837;SDS011;57135;51.992;4.476;2023-04-15T06:41:35;15.15;;;14.98;;
69837;SDS011;57135;51.992;4.476;2023-04-15T06:44:00;14.49;;;14.41;;
69837;SDS011;57135;51.992;4.476;2023-04-15T06:46:26;14.55;;;14.42;;
69837;SDS011;57135;51.992;4.476;2023-04-15T06:48:52;14.93;;;14.68;;
69837;SDS011;57135;51.992;4.476;2023-04-15T06:51:17;14.76;;;14.70;;
69837;SDS011;57135;51.992;4.476;2023-04-15T06:53:43;14.66;;;14.61;;
69837;SDS011;57135;51.992;4.476;2023-04-15T06:56:08;14.59;;;14.57;;
69837;SDS011;57135;51.992;4.476;2023-04-15T06:58:34;14.90;;;14.68;;
69837;SDS011;57135;51.992;4.476;2023-04-15T07:01:00;14.34;;;14.21;;
69837;SDS011;57135;51.992;4.476;2023-04-15T07:03:26;13.64;;;13.61;;
69837;SDS011;57135;51.992;4.476;2023-04-15T07:05:51;14.58;;;14.50;;
69837;SDS011;57135;51.992;4.476;2023-04-15T07:08:18;14.10;;;13.87;;
69837;SDS011;57135;51.992;4.476;2023-04-15T07:10:43;14.28;;;14.14;;
69837;SDS011;57135;51.992;4.476;2023-04-15T07:13:10;13.86;;;13.76;;
69837;SDS011;57135;51.992;4.476;2023-04-15T07:15:35;13.97;;;13.93;;
69837;SDS011;57135;51.992;4.476;2023-04-15T07:18:01;13.37;;;13.30;;
69837;SDS011;57135;51.992;4.476;2023-04-15T07:20:26;13.51;;;13.47;;
69837;SDS011;57135;51.992;4.476;2023-04-15T07:22:52;13.86;;;13.64;;
69837;SDS011;57135;51.992;4.476;2023-04-15T07:25:17;13.87;;;13.84;;
69837;SDS011;57135;51.992;4.476;2023-04-15T07:27:43;13.53;;;13.51;;
69837;SDS011;57135;51.992;4.476;2023-04-15T07:30:09;13.33;;;13.26;;
69837;SDS011;57135;51.992;4.476;2023-04-15T07:32:35;13.69;;;13.42;;
69837;SDS011;57135;51.992;4.476;2023-04-15T07:35:00;14.00;;;13.72;;
69837;SDS011;57135;51.992;4.476;2023-04-15T07:37:27;13.54;;;13.28;;
69837;SDS011;57135;51.992;4.476;2023-04-15T07:39:53;12.89;;;12.80;;
69837;SDS011;57135;51.992;4.476;2023-04-15T07:42:19;12.88;;;12.74;;
69837;SDS011;57135;51.992;4.476;2023-04-15T07:44:46;12.61;;;12.46;;
69837;SDS011;57135;51.992;4.476;2023-04-15T07:47:11;12.19;;;12.13;;
69837;SDS011;57135;51.992;4.476;2023-04-15T07:49:37;12.66;;;12.65;;
69837;SDS011;57135;51.992;4.476;2023-04-15T07:52:02;12.53;;;12.42;;
69837;SDS011;57135;51.992;4.476;2023-04-15T07:54:28;12.93;;;12.75;;
69837;SDS011;57135;51.992;4.476;2023-04-15T07:56:53;13.08;;;12.90;;
69837;SDS011;57135;51.992;4.476;2023-04-15T07:59:20;13.07;;;13.01;;
69837;SDS011;57135;51.992;4.476;2023-04-15T08:01:45;13.19;;;13.04;;
69837;SDS011;57135;51.992;4.476;2023-04-15T08:04:11;13.84;;;13.47;;
69837;SDS011;57135;51.992;4.476;2023-04-15T08:06:36;13.72;;;13.49;;
69837;SDS011;57135;51.992;4.476;2023-04-15T08:09:04;13.95;;;13.67;;
69837;SDS011;57135;51.992;4.476;2023-04-15T08:11:30;14.07;;;13.86;;
69837;SDS011;57135;51.992;4.476;2023-04-15T08:13:55;13.48;;;13.48;;
69837;SDS011;57135;51.992;4.476;2023-04-15T08:16:22;13.79;;;13.56;;
69837;SDS011;57135;51.992;4.476;2023-04-15T08:18:49;14.12;;;13.90;;
69837;SDS011;57135;51.992;4.476;2023-04-15T08:21:17;14.10;;;13.88;;
69837;SDS011;57135;51.992;4.476;2023-04-15T08:23:44;14.31;;;14.13;;
69837;SDS011;57135;51.992;4.476;2023-04-15T08:26:10;13.15;;;12.97;;
69837;SDS011;57135;51.992;4.476;2023-04-15T08:28:37;13.55;;;13.24;;
69837;SDS011;57135;51.992;4.476;2023-04-15T08:31:04;12.96;;;12.82;;
69837;SDS011;57135;51.992;4.476;2023-04-15T08:33:30;13.53;;;13.20;;
69837;SDS011;57135;51.992;4.476;2023-04-15T08:35:55;13.73;;;13.59;;
69837;SDS011;57135;51.992;4.476;2023-04-15T08:38:22;13.70;;;13.32;;
69837;SDS011;57135;51.992;4.476;2023-04-15T08:40:47;13.46;;;13.24;;
69837;SDS011;57135;51.992;4.476;2023-04-15T08:43:56;13.22;;;13.17;;
69837;SDS011;57135;51.992;4.476;2023-04-15T08:46:03;13.80;;;13.51;;
69837;SDS011;57135;51.992;4.476;2023-04-15T08:48:31;13.74;;;13.41;;
69837;SDS011;57135;51.992;4.476;2023-04-15T08:50:57;13.22;;;12.96;;
69837;SDS011;57135;51.992;4.476;2023-04-15T08:53:23;13.27;;;13.05;;
69837;SDS011;57135;51.992;4.476;2023-04-15T08:55:50;13.62;;;13.31;;
69837;SDS011;57135;51.992;4.476;2023-04-15T08:58:16;14.42;;;13.96;;
69837;SDS011;57135;51.992;4.476;2023-04-15T09:00:44;14.41;;;14.10;;
69837;SDS011;57135;51.992;4.476;2023-04-15T09:03:10;14.41;;;14.14;;
69837;SDS011;57135;51.992;4.476;2023-04-15T09:05:35;13.95;;;13.56;;
69837;SDS011;57135;51.992;4.476;2023-04-15T09:08:01;13.46;;;13.08;;
69837;SDS011;57135;51.992;4.476;2023-04-15T09:10:28;12.97;;;12.57;;
69837;SDS011;57135;51.992;4.476;2023-04-15T09:12:55;12.57;;;12.30;;
69837;SDS011;57135;51.992;4.476;2023-04-15T09:15:21;12.72;;;12.38;;
69837;SDS011;57135;51.992;4.476;2023-04-15T09:17:49;12.03;;;11.71;;
69837;SDS011;57135;51.992;4.476;2023-04-15T09:20:15;11.98;;;11.64;;
69837;SDS011;57135;51.992;4.476;2023-04-15T09:22:44;11.84;;;11.58;;
69837;SDS011;57135;51.992;4.476;2023-04-15T09:30:15;10.70;;;10.57;;
69837;SDS011;57135;51.992;4.476;2023-04-15T09:32:54;10.36;;;10.14;;
69837;SDS011;57135;51.992;4.476;2023-04-15T09:35:20;10.11;;;9.87;;
69837;SDS011;57135;51.992;4.476;2023-04-15T09:37:48;9.66;;;9.58;;
69837;SDS011;57135;51.992;4.476;2023-04-15T09:40:14;8.39;;;8.32;;
69837;SDS011;57135;51.992;4.476;2023-04-15T09:43:05;7.86;;;7.82;;
69837;SDS011;57135;51.992;4.476;2023-04-15T09:45:32;8.02;;;7.92;;
69837;SDS011;57135;51.992;4.476;2023-04-15T09:48:13;8.17;;;8.05;;
69837;SDS011;57135;51.992;4.476;2023-04-15T09:50:47;7.73;;;7.64;;
69837;SDS011;57135;51.992;4.476;2023-04-15T09:53:17;7.30;;;7.15;;
69837;SDS011;57135;51.992;4.476;2023-04-15T09:55:51;6.54;;;6.48;;
69837;SDS011;57135;51.992;4.476;2023-04-15T09:58:25;5.87;;;5.83;;
69837;SDS011;57135;51.992;4.476;2023-04-15T10:00:52;5.33;;;5.30;;
69837;SDS011;57135;51.992;4.476;2023-04-15T10:03:20;5.50;;;5.49;;
69837;SDS011;57135;51.992;4.476;2023-04-15T10:05:48;5.48;;;5.46;;
69837;SDS011;57135;51.992;4.476;2023-04-15T10:08:15;5.73;;;5.73;;
69837;SDS011;57135;51.992;4.476;2023-04-15T10:10:43;5.11;;;5.06;;
69837;SDS011;57135;51.992;4.476;2023-04-15T10:13:10;4.73;;;4.68;;
69837;SDS011;57135;51.992;4.476;2023-04-15T10:15:38;5.01;;;4.95;;
69837;SDS011;57135;51.992;4.476;2023-04-15T10:18:09;4.84;;;4.79;;
69837;SDS011;57135;51.992;4.476;2023-04-15T10:20:39;4.52;;;4.49;;
69837;SDS011;57135;51.992;4.476;2023-04-15T10:23:05;4.46;;;4.42;;
69837;SDS011;57135;51.992;4.476;2023-04-15T10:25:32;4.70;;;4.66;;
69837;SDS011;57135;51.992;4.476;2023-04-15T10:27:58;4.93;;;4.88;;
69837;SDS011;57135;51.992;4.476;2023-04-15T10:30:24;5.04;;;4.96;;
69837;SDS011;57135;51.992;4.476;2023-04-15T10:32:49;5.32;;;5.28;;
69837;SDS011;57135;51.992;4.476;2023-04-15T10:35:15;5.07;;;5.05;;
69837;SDS011;57135;51.992;4.476;2023-04-15T10:37:42;5.50;;;5.49;;
69837;SDS011;57135;51.992;4.476;2023-04-15T10:42:48;4.69;;;4.65;;
69837;SDS011;57135;51.992;4.476;2023-04-15T10:45:17;4.22;;;4.20;;
69837;SDS011;57135;51.992;4.476;2023-04-15T10:47:43;4.72;;;4.72;;
69837;SDS011;57135;51.992;4.476;2023-04-15T10:50:08;4.81;;;4.81;;
69837;SDS011;57135;51.992;4.476;2023-04-15T10:52:34;4.68;;;4.68;;
69837;SDS011;57135;51.992;4.476;2023-04-15T10:55:19;4.79;;;4.78;;
69837;SDS011;57135;51.992;4.476;2023-04-15T10:57:50;4.77;;;4.77;;
69837;SDS011;57135;51.992;4.476;2023-04-15T11:00:27;4.87;;;4.84;;
69837;SDS011;57135;51.992;4.476;2023-04-15T11:05:22;5.94;;;5.94;;
69837;SDS011;57135;51.992;4.476;2023-04-15T11:08:11;5.52;;;5.51;;
69837;SDS011;57135;51.992;4.476;2023-04-15T11:18:13;6.82;;;6.82;;
69837;SDS011;57135;51.992;4.476;2023-04-15T11:20:41;6.46;;;6.43;;
69837;SDS011;57135;51.992;4.476;2023-04-15T11:23:09;5.60;;;5.60;;
69837;SDS011;57135;51.992;4.476;2023-04-15T11:25:35;5.78;;;5.78;;
69837;SDS011;57135;51.992;4.476;2023-04-15T11:28:04;6.80;;;6.80;;
69837;SDS011;57135;51.992;4.476;2023-04-15T11:30:31;6.88;;;6.85;;
69837;SDS011;57135;51.992;4.476;2023-04-15T11:32:58;6.51;;;6.48;;
69837;SDS011;57135;51.992;4.476;2023-04-15T11:35:25;5.83;;;5.83;;
69837;SDS011;57135;51.992;4.476;2023-04-15T11:37:51;6.22;;;6.21;;
69837;SDS011;57135;51.992;4.476;2023-04-15T11:40:27;6.34;;;6.32;;
69837;SDS011;57135;51.992;4.476;2023-04-15T11:48:27;4.75;;;4.75;;
69837;SDS011;57135;51.992;4.476;2023-04-15T11:50:58;5.18;;;5.17;;
69837;SDS011;57135;51.992;4.476;2023-04-15T11:53:35;5.28;;;5.28;;
69837;SDS011;57135;51.992;4.476;2023-04-15T11:56:05;5.19;;;5.19;;
69837;SDS011;57135;51.992;4.476;2023-04-15T11:58:33;4.95;;;4.95;;
69837;SDS011;57135;51.992;4.476;2023-04-15T12:01:01;5.06;;;5.06;;
69837;SDS011;57135;51.992;4.476;2023-04-15T12:03:28;5.47;;;5.46;;
69837;SDS011;57135;51.992;4.476;2023-04-15T12:13:52;5.45;;;5.45;;
69837;SDS011;57135;51.992;4.476;2023-04-15T12:16:21;5.80;;;5.79;;
69837;SDS011;57135;51.992;4.476;2023-04-15T12:18:51;5.69;;;5.66;;
69837;SDS011;57135;51.992;4.476;2023-04-15T12:21:20;5.26;;;5.25;;
69837;SDS011;57135;51.992;4.476;2023-04-15T12:24:06;5.58;;;5.57;;
69837;SDS011;57135;51.992;4.476;2023-04-15T12:26:37;5.75;;;5.72;;
69837;SDS011;57135;51.992;4.476;2023-04-15T12:29:11;5.74;;;5.71;;
69837;SDS011;57135;51.992;4.476;2023-04-15T12:31:50;5.60;;;5.59;;
69837;SDS011;57135;51.992;4.476;2023-04-15T12:34:27;5.08;;;5.06;;
69837;SDS011;57135;51.992;4.476;2023-04-15T12:36:55;5.47;;;5.46;;
69837;SDS011;57135;51.992;4.476;2023-04-15T12:39:22;5.62;;;5.61;;
69837;SDS011;57135;51.992;4.476;2023-04-15T12:41:49;5.58;;;5.58;;
69837;SDS011;57135;51.992;4.476;2023-04-15T12:44:15;5.50;;;5.47;;
69837;SDS011;57135;51.992;4.476;2023-04-15T12:46:41;5.83;;;5.82;;
69837;SDS011;57135;51.992;4.476;2023-04-15T12:49:06;5.18;;;5.18;;
69837;SDS011;57135;51.992;4.476;2023-04-15T12:51:32;5.56;;;5.56;;
69837;SDS011;57135;51.992;4.476;2023-04-15T12:53:57;5.36;;;5.35;;
69837;SDS011;57135;51.992;4.476;2023-04-15T12:56:23;6.18;;;6.17;;
69837;SDS011;57135;51.992;4.476;2023-04-15T12:58:48;6.45;;;6.45;;
69837;SDS011;57135;51.992;4.476;2023-04-15T13:01:14;6.68;;;6.64;;
69837;SDS011;57135;51.992;4.476;2023-04-15T13:03:39;6.96;;;6.89;;
69837;SDS011;57135;51.992;4.476;2023-04-15T13:06:05;6.18;;;6.10;;
69837;SDS011;57135;51.992;4.476;2023-04-15T13:08:31;5.24;;;5.20;;
69837;SDS011;57135;51.992;4.476;2023-04-15T13:10:57;5.44;;;5.37;;
69837;SDS011;57135;51.992;4.476;2023-04-15T13:13:22;6.01;;;5.99;;
69837;SDS011;57135;51.992;4.476;2023-04-15T13:15:48;5.70;;;5.68;;
69837;SDS011;57135;51.992;4.476;2023-04-15T13:18:13;4.88;;;4.86;;
69837;SDS011;57135;51.992;4.476;2023-04-15T13:20:39;5.10;;;5.10;;
69837;SDS011;57135;51.992;4.476;2023-04-15T13:23:05;5.01;;;4.98;;
69837;SDS011;57135;51.992;4.476;2023-04-15T13:25:31;4.83;;;4.78;;
69837;SDS011;57135;51.992;4.476;2023-04-15T13:27:56;4.95;;;4.92;;
69837;SDS011;57135;51.992;4.476;2023-04-15T13:30:22;4.86;;;4.85;;
69837;SDS011;57135;51.992;4.476;2023-04-15T13:32:48;4.82;;;4.82;;
69837;SDS011;57135;51.992;4.476;2023-04-15T13:35:13;5.31;;;5.31;;
69837;SDS011;57135;51.992;4.476;2023-04-15T13:37:39;5.00;;;4.95;;
69837;SDS011;57135;51.992;4.476;2023-04-15T13:40:05;5.45;;;5.40;;
69837;SDS011;57135;51.992;4.476;2023-04-15T13:42:31;4.72;;;4.70;;
69837;SDS011;57135;51.992;4.476;2023-04-15T13:44:57;4.70;;;4.70;;
69837;SDS011;57135;51.992;4.476;2023-04-15T13:47:22;4.71;;;4.71;;
69837;SDS011;57135;51.992;4.476;2023-04-15T13:49:48;4.91;;;4.90;;
69837;SDS011;57135;51.992;4.476;2023-04-15T13:52:13;4.48;;;4.47;;
69837;SDS011;57135;51.992;4.476;2023-04-15T13:54:39;4.80;;;4.80;;
69837;SDS011;57135;51.992;4.476;2023-04-15T13:57:05;5.05;;;5.04;;
69837;SDS011;57135;51.992;4.476;2023-04-15T13:59:34;5.26;;;5.24;;
69837;SDS011;57135;51.992;4.476;2023-04-15T14:02:00;5.16;;;5.15;;
69837;SDS011;57135;51.992;4.476;2023-04-15T14:04:26;5.00;;;4.98;;
69837;SDS011;57135;51.992;4.476;2023-04-15T14:06:51;5.01;;;5.00;;
69837;SDS011;57135;51.992;4.476;2023-04-15T14:09:17;4.91;;;4.91;;
69837;SDS011;57135;51.992;4.476;2023-04-15T14:11:42;5.05;;;5.02;;
69837;SDS011;57135;51.992;4.476;2023-04-15T14:14:08;5.06;;;5.04;;
69837;SDS011;57135;51.992;4.476;2023-04-15T14:16:33;4.93;;;4.93;;
69837;SDS011;57135;51.992;4.476;2023-04-15T14:19:00;5.06;;;5.04;;
69837;SDS011;57135;51.992;4.476;2023-04-15T14:21:26;5.17;;;5.16;;
69837;SDS011;57135;51.992;4.476;2023-04-15T14:23:56;4.94;;;4.93;;
69837;SDS011;57135;51.992;4.476;2023-04-15T14:26:21;5.14;;;5.11;;
69837;SDS011;57135;51.992;4.476;2023-04-15T14:28:50;5.00;;;4.99;;
69837;SDS011;57135;51.992;4.476;2023-04-15T14:31:16;4.99;;;4.97;;
69837;SDS011;57135;51.992;4.476;2023-04-15T14:33:42;5.16;;;5.11;;
69837;SDS011;57135;51.992;4.476;2023-04-15T14:36:08;5.33;;;5.28;;
69837;SDS011;57135;51.992;4.476;2023-04-15T14:38:34;5.04;;;5.04;;
69837;SDS011;57135;51.992;4.476;2023-04-15T14:41:07;5.34;;;5.33;;
69837;SDS011;57135;51.992;4.476;2023-04-15T14:43:34;5.16;;;5.16;;
69837;SDS011;57135;51.992;4.476;2023-04-15T14:46:00;5.01;;;5.00;;
69837;SDS011;57135;51.992;4.476;2023-04-15T14:48:25;5.18;;;5.15;;
69837;SDS011;57135;51.992;4.476;2023-04-15T14:50:51;5.56;;;5.53;;
69837;SDS011;57135;51.992;4.476;2023-04-15T14:53:17;5.70;;;5.70;;
69837;SDS011;57135;51.992;4.476;2023-04-15T14:55:42;5.83;;;5.83;;
69837;SDS011;57135;51.992;4.476;2023-04-15T14:58:09;5.94;;;5.91;;
69837;SDS011;57135;51.992;4.476;2023-04-15T15:00:35;6.16;;;6.15;;